Historyczne dane pomiarowe

Dodano dane terminowe – wersja testowa.

Dane z okresu 1951-2019

Wersja bazy: 1.34 [2019-03-16, lista zmian], aktualizacja planowana na 2019-04-15

Dane meteo z obszaru Polski uzyskane na podstawie danych udostępnionych przez Instytut Meteorologii i Gospodarki Wodnej – Państwowy Instytut Badawczy.

 

Wybierz Datę:    

       

TemperaturaWilgotnośćWiatrCiśnienieOpadyŚniegCzas trwania zjawisk
 Stacja t tx tn tng RH VA  wxwx mslp ppp RRR   cm mm wxwxwxwxwxwxwx
1999-08-14 9.1 13.8 6.0- 82.3- 4.3 0.0---- 0.0------------
1999-08-13 9.7 11.4 8.5- 93.0- 7.7 0.0---- 0.0------------
1999-08-12 10.9 13.2 9.8- 95.3- 8.0 0.0---- 0.3------------
1999-08-11 12.4 17.7 8.8- 95.0- 3.3 0.0---- 2.3------------
1999-08-10 16.5 24.3 11.8- 92.3- 6.7 0.7---- 26.1------------
1999-08-09 15.0 24.7 7.0- 88.5- 4.3 0.0---- 0.9------------
1999-08-08 16.7 23.8 12.1- 86.5- 4.7 0.7---- 0.0------------
1999-08-07 15.1 22.3 8.5- 87.8- 5.3 0.0---- 1.4------------
1999-08-06 15.9 22.1 10.6- 82.8- 6.3 0.0---- 0.2------------
1999-08-05 11.2 19.1 4.0- 88.0- 5.0 0.0---- 1.1------------
1999-08-04 9.3 15.9 3.0- 91.8- 4.3 0.0---- 0.4------------
1999-08-03 8.8 13.6 4.2- 90.5- 6.0 0.0---- 0.0------------
1999-08-02 9.2 12.8 4.7- 89.3- 5.7 0.0---- 0.0------------
1999-08-01 11.3 15.2 8.1- 94.3- 5.0 0.0---- 0.6------------
1999-07-31 10.8 15.4 5.5- 87.0- 6.7 0.3---- 6.0------------
1999-07-30 10.3 13.6 6.2- 87.3- 7.3 1.3---- 2.1------------
1999-07-29 10.4 14.3 5.8- 91.5- 5.7 1.0---- 0.0------------
1999-07-28 13.4 15.2 12.3- 99.3- 7.3 0.3---- 2.0------------
1999-07-27 14.1 16.2 12.8- 99.0- 8.0 0.3---- 12.3------------
1999-07-26 13.6 18.9 8.4- 97.3- 6.0 0.0---- 38.4------------
1999-07-25 11.7 18.9 4.1- 94.3- 5.3 0.0---- 0.0------------
1999-07-24 9.7 11.4 7.2- 96.5- 8.0 0.0---- 0.0------------
1999-07-23 10.2 13.6 8.2- 95.8- 8.0 1.7---- 20.1------------
1999-07-22 14.5 18.9 10.6- 74.0- 6.7 0.0---- 17.6------------
1999-07-21 16.3 23.7 8.3- 79.8- 6.0 1.7---- 0.0------------
1999-07-20 14.1 21.8 7.0- 83.5- 3.3 0.0---- 0.0------------
1999-07-19 12.3 20.7 4.3- 80.0- 4.0 0.3---- 0.0------------
1999-07-18 10.8 20.3 3.7- 77.5- 1.7 0.3---- 0.0------------
1999-07-17 11.0 17.3 5.2- 83.5- 4.0 0.3---- 0.0------------
1999-07-16 11.6 16.4 7.7- 98.0- 5.3 0.0---- 0.0------------
1999-07-15 11.7 14.9 9.9- 99.3- 7.3 0.0---- 0.2------------
1999-07-14 14.7 18.7 12.9- 98.5- 7.0 0.0---- 18.6------------
1999-07-13 15.1 18.8 12.5- 98.8- 7.0 0.0---- 13.4------------
1999-07-12 15.5 19.8 12.4- 97.8- 7.3 0.0---- 3.0------------
1999-07-11 14.9 16.8 12.8-100.0- 7.7 1.0---- 6.9------------
1999-07-10 14.6 16.0 13.7-100.0- 8.0 0.7---- 4.2------------
1999-07-09 14.2 17.8 10.6- 88.3- 7.7 1.0---- 4.7------------
1999-07-08 15.2 18.8 12.8- 98.8- 6.7 1.0---- 23.9------------
1999-07-07 18.1 22.1 15.3- 95.8- 6.3 0.3---- 27.6------------
1999-07-06 21.8 26.3 18.4- 61.0- 4.3 5.3---- 0.0------------
1999-07-05 20.2 25.0 13.8- 53.8- 0.7 2.7---- 0.0------------
1999-07-04 16.4 23.0 13.2- 84.0- 2.0 0.7---- 0.0------------
1999-07-03 13.2 18.8 6.7- 96.3- 5.7 0.7---- 0.0------------
1999-07-02 13.1 16.6 9.7- 99.5- 6.0 0.0---- 0.7------------
1999-07-01 14.7 21.7 9.8- 95.8- 6.0 0.7---- 7.7------------
1999-06-30 13.8 18.1 9.1- 98.8- 6.0 0.3---- 1.7------------
1999-06-29 13.7 19.3 8.9- 97.8- 6.7 0.0---- 0.1------------
1999-06-28 12.7 21.7 5.4- 93.5- 6.0 0.0---- 6.1------------
1999-06-27 13.2 24.0 4.4- 85.8- 1.7 0.7---- 0.0------------
1999-06-26 10.6 20.3 1.6- 91.8- 1.7 0.7---- 0.0------------
1999-06-25 7.4 13.0 2.6- 96.0- 4.0 0.3---- 0.0------------
1999-06-24 5.3 6.6 3.7- 98.5- 8.0 0.3---- 0.3------------
1999-06-23 4.2 5.1 3.1- 98.5- 8.0 1.0---- 9.7------------
1999-06-22 7.0 12.1 3.8- 99.3- 8.0 1.0---- 29.8------------
1999-06-21 12.4 17.7 9.3- 98.5- 6.3 0.3---- 17.0------------
1999-06-20 13.5 16.4 10.9- 99.8- 7.0 0.3---- 1.4------------
1999-06-19 13.0 16.0 10.3-100.0- 8.0 0.0---- 1.6------------
1999-06-18 12.6 14.8 10.5-100.0- 7.7 0.0---- 8.0------------
1999-06-17 12.1 15.4 8.7-100.0- 7.7 0.0---- 13.7------------
1999-06-16 14.0 16.6 12.1- 99.8- 7.7 0.0---- 9.6------------
374.2 ms

 

Źródłem pochodzenia danych jest Instytut Meteorologii i Gospodarki Wodnej – Państwowy Instytut Badawczy. Dane Instytutu Meteorologii i Gospodarki Wodnej – Państwowego Instytutu Badawczego zostały przetworzone.

Dane źródłowe można odnaleźć na stronie https://dane.imgw.pl